Time;durP1;ratioP1;P1;durP2;ratioP2;P2;SDS_P1;SDS_P2;PMS_P1;PMS_P2;Temp;Humidity;BMP_temperature;BMP_pressure;BME280_temperature;BME280_humidity;BME280_pressure;Samples;Min_cycle;Max_cycle;Signal;HPM_P1;HPM_P2
2022/10/20 00:01:15;;;;;;;;;;;;;;;;;;5088830;28;19910;-50
2022/10/20 00:03:41;;;;;;;;;;;;;;;;;;5080507;28;19916;-52
2022/10/20 00:06:07;;;;;;;;;;;;;;;;;;5068491;28;19954;-50
2022/10/20 00:08:33;;;;;;;;;;;;;;;;;;5069312;28;20372;-51
2022/10/20 00:10:59;;;;;;;;;;;;;;;;;;5089113;28;19911;-51
2022/10/20 00:13:25;;;;;;;;;;;;;;;;;;5088758;28;19911;-51
2022/10/20 00:15:51;;;;;;;;;;;;;;;;;;5077280;28;19954;-52
2022/10/20 00:18:17;;;;;;;;;;;;;;;;;;5068598;28;19910;-51
2022/10/20 00:20:42;;;;;;;;;;;;;;;;;;5068664;28;19909;-48
2022/10/20 00:23:08;;;;;;;;;;;;;;;;;;5068325;28;19904;-50
2022/10/20 00:25:34;;;;;;;;;;;;;;;;;;5068371;28;19904;-49
2022/10/20 00:28:00;;;;;;;;;;;;;;;;;;5068696;28;19938;-49
2022/10/20 00:30:26;;;;;;;;;;;;;;;;;;5067949;28;19919;-49
2022/10/20 00:32:52;;;;;;;;;;;;;;;;;;5066956;28;20105;-51
2022/10/20 00:35:18;;;;;;;;;;;;;;;;;;5067909;28;19904;-51
2022/10/20 00:37:44;;;;;;;;;;;;;;;;;;5068508;28;19905;-49
2022/10/20 00:40:10;;;;;;;;;;;;;;;;;;5068405;28;19912;-51
2022/10/20 00:42:36;;;;;;;;;;;;;;;;;;5068389;28;19912;-51
2022/10/20 00:45:01;;;;;;;;;;;;;;;;;;5069129;28;19995;-50
2022/10/20 00:47:27;;;;;;;;;;;;;;;;;;5067808;28;19908;-50
2022/10/20 00:49:53;;;;;;;;;;;;;;;;;;5068371;28;19908;-50
2022/10/20 00:52:19;;;;;;;;;;;;;;;;;;5068126;28;20414;-52
2022/10/20 00:54:45;;;;;;;;;;;;;;;;;;5068516;28;19911;-50
2022/10/20 00:57:11;;;;;;;;;;;;;;;;;;5068135;28;19912;-50
2022/10/20 00:59:37;;;;;;;;;;;;;;;;;;5068371;28;19950;-49
2022/10/20 01:02:03;;;;;;;;;;;;;;;;;;5068426;28;19909;-48
2022/10/20 01:04:28;;;;;;;;;;;;;;;;;;5078444;28;19931;-50
2022/10/20 01:06:54;;;;;;;;;;;;;;;;;;5088578;28;19912;-51
2022/10/20 01:09:20;;;;;;;;;;;;;;;;;;5070900;28;20371;-48
2022/10/20 01:11:46;;;;;;;;;;;;;;;;;;5070821;28;19908;-49
2022/10/20 01:14:12;;;;;;;;;;;;;;;;;;5070600;28;20407;-48
2022/10/20 01:16:38;;;;;;;;;;;;;;;;;;5070876;28;19912;-50
2022/10/20 01:19:05;;;;;;;;;;;;;;;;;;5070552;28;20447;-50
2022/10/20 01:21:31;;;;;;;;;;;;;;;;;;5071332;28;19904;-51
2022/10/20 01:23:57;;;;;;;;;;;;;;;;;;5072081;28;19958;-49
2022/10/20 01:26:23;;;;;;;;;;;;;;;;;;5090962;28;20462;-49
2022/10/20 01:28:48;;;;;;;;;;;;;;;;;;5077140;28;20332;-47
2022/10/20 01:31:14;;;;;;;;;;;;;;;;;;5070325;28;19915;-50
2022/10/20 01:33:40;;;;;;;;;;;;;;;;;;5070053;28;20393;-52
2022/10/20 01:36:06;;;;;;;;;;;;;;;;;;5070264;28;19909;-49
2022/10/20 01:38:32;;;;;;;;;;;;;;;;;;5071120;28;20376;-48
2022/10/20 01:40:58;;;;;;;;;;;;;;;;;;5071193;28;19916;-52
2022/10/20 01:43:24;;;;;;;;;;;;;;;;;;5074111;28;20272;-50
2022/10/20 01:45:50;;;;;;;;;;;;;;;;;;5090739;28;19915;-49
2022/10/20 01:48:16;;;;;;;;;;;;;;;;;;5089819;28;19904;-50
2022/10/20 01:50:42;;;;;;;;;;;;;;;;;;5090504;28;20484;-52
2022/10/20 01:53:07;;;;;;;;;;;;;;;;;;5085258;28;19915;-50
2022/10/20 01:55:33;;;;;;;;;;;;;;;;;;5090602;28;20287;-51
2022/10/20 01:57:59;;;;;;;;;;;;;;;;;;5090912;28;19911;-52
2022/10/20 02:00:25;;;;;;;;;;;;;;;;;;5090444;28;20365;-48
2022/10/20 02:02:51;;;;;;;;;;;;;;;;;;5088886;28;20015;-52
2022/10/20 02:05:17;;;;;;;;;;;;;;;;;;5090032;28;20530;-48
2022/10/20 02:07:43;;;;;;;;;;;;;;;;;;5090139;28;19957;-49
2022/10/20 02:10:09;;;;;;;;;;;;;;;;;;5089759;28;19904;-49
2022/10/20 02:12:34;;;;;;;;;;;;;;;;;;5089131;28;19908;-49
2022/10/20 02:15:00;;;;;;;;;;;;;;;;;;5089605;28;20007;-49
2022/10/20 02:17:26;;;;;;;;;;;;;;;;;;5088823;28;19954;-48
2022/10/20 02:19:52;;;;;;;;;;;;;;;;;;5090083;28;20405;-50
2022/10/20 02:22:18;;;;;;;;;;;;;;;;;;5082766;28;19946;-51
2022/10/20 02:24:44;;;;;;;;;;;;;;;;;;5069710;28;20420;-48
2022/10/20 02:27:10;;;;;;;;;;;;;;;;;;5069324;28;19912;-49
2022/10/20 02:29:36;;;;;;;;;;;;;;;;;;5069627;28;19939;-48
2022/10/20 02:32:02;;;;;;;;;;;;;;;;;;5083364;28;19955;-48
2022/10/20 02:34:27;;;;;;;;;;;;;;;;;;5068244;28;19930;-51
2022/10/20 02:36:53;;;;;;;;;;;;;;;;;;5069637;28;19996;-51
2022/10/20 02:39:19;;;;;;;;;;;;;;;;;;5069144;28;19955;-50
2022/10/20 02:41:45;;;;;;;;;;;;;;;;;;5070499;28;20384;-51
2022/10/20 02:44:11;;;;;;;;;;;;;;;;;;5088838;28;19904;-51
2022/10/20 02:46:37;;;;;;;;;;;;;;;;;;5089387;28;19908;-49
2022/10/20 02:49:03;;;;;;;;;;;;;;;;;;5089121;28;19904;-51
2022/10/20 02:51:29;;;;;;;;;;;;;;;;;;5089081;28;19912;-50
2022/10/20 02:53:55;;;;;;;;;;;;;;;;;;5069652;28;19952;-49
2022/10/20 02:56:21;;;;;;;;;;;;;;;;;;5069113;28;19904;-50
2022/10/20 02:58:47;;;;;;;;;;;;;;;;;;5069242;28;19904;-50
2022/10/20 03:01:13;;;;;;;;;;;;;;;;;;5068497;28;19915;-51
2022/10/20 03:03:39;;;;;;;;;;;;;;;;;;5085136;28;20364;-49
2022/10/20 03:06:04;;;;;;;;;;;;;;;;;;5088912;28;19951;-48
2022/10/20 03:08:30;;;;;;;;;;;;;;;;;;5089536;28;20031;-48
2022/10/20 03:10:56;;;;;;;;;;;;;;;;;;5089408;28;19915;-49
2022/10/20 03:13:22;;;;;;;;;;;;;;;;;;5073992;28;20481;-51
2022/10/20 03:15:48;;;;;;;;;;;;;;;;;;5068592;28;19912;-48
2022/10/20 03:18:14;;;;;;;;;;;;;;;;;;5068307;28;19911;-47
2022/10/20 03:20:40;;;;;;;;;;;;;;;;;;5073565;28;19914;-48
2022/10/20 03:23:05;;;;;;;;;;;;;;;;;;5087285;28;20333;-50
2022/10/20 03:25:31;;;;;;;;;;;;;;;;;;5087685;28;19908;-52
2022/10/20 03:27:57;;;;;;;;;;;;;;;;;;5088887;28;19912;-47
2022/10/20 03:30:23;;;;;;;;;;;;;;;;;;5088217;28;19912;-48
2022/10/20 03:32:49;;;;;;;;;;;;;;;;;;5088798;28;19947;-49
2022/10/20 03:35:15;;;;;;;;;;;;;;;;;;5084951;28;19973;-47
2022/10/20 03:37:41;;;;;;;;;;;;;;;;;;5068351;28;19904;-52
2022/10/20 03:40:07;;;;;;;;;;;;;;;;;;5067890;28;19904;-49
2022/10/20 03:42:32;;;;;;;;;;;;;;;;;;5068444;28;19912;-48
2022/10/20 03:44:58;;;;;;;;;;;;;;;;;;5068267;28;19910;-48
2022/10/20 03:47:24;;;;;;;;;;;;;;;;;;5068020;28;19911;-49
2022/10/20 03:49:50;;;;;;;;;;;;;;;;;;5068044;28;19944;-48
2022/10/20 03:52:16;;;;;;;;;;;;;;;;;;5067830;28;19908;-47
2022/10/20 03:54:42;;;;;;;;;;;;;;;;;;5070740;28;19962;-46
2022/10/20 03:57:08;;;;;;;;;;;;;;;;;;5090187;28;20448;-46
2022/10/20 03:59:34;;;;;;;;;;;;;;;;;;5100820;28;20403;-50
2022/10/20 04:02:00;;;;;;;;;;;;;;;;;;5088592;28;19914;-48
2022/10/20 04:04:26;;;;;;;;;;;;;;;;;;5088714;28;19904;-48
2022/10/20 04:06:51;;;;;;;;;;;;;;;;;;5087249;28;19907;-49
2022/10/20 04:09:17;;;;;;;;;;;;;;;;;;5088694;28;20351;-51
2022/10/20 04:11:43;;;;;;;;;;;;;;;;;;5089029;28;19954;-49
2022/10/20 04:14:09;;;;;;;;;;;;;;;;;;5087366;28;19904;-46
2022/10/20 04:16:35;;;;;;;;;;;;;;;;;;5082366;28;19978;-47
2022/10/20 04:19:01;;;;;;;;;;;;;;;;;;5089668;28;19911;-50
2022/10/20 04:21:27;;;;;;;;;;;;;;;;;;5088850;28;19915;-46
2022/10/20 04:23:53;;;;;;;;;;;;;;;;;;5088788;28;20084;-50
2022/10/20 04:26:19;;;;;;;;;;;;;;;;;;5085576;28;20363;-50
2022/10/20 04:28:44;;;;;;;;;;;;;;;;;;5068667;28;19912;-51
2022/10/20 04:31:10;;;;;;;;;;;;;;;;;;5071599;28;19912;-49
2022/10/20 04:33:36;;;;;;;;;;;;;;;;;;5072906;28;19912;-48
2022/10/20 04:36:02;;;;;;;;;;;;;;;;;;5081225;28;19974;-51
2022/10/20 04:38:28;;;;;;;;;;;;;;;;;;5068627;28;19905;-50
2022/10/20 04:40:54;;;;;;;;;;;;;;;;;;5070555;28;20256;-48
2022/10/20 04:43:20;;;;;;;;;;;;;;;;;;5086372;28;19915;-47
2022/10/20 04:45:46;;;;;;;;;;;;;;;;;;5071442;28;19909;-50
2022/10/20 04:48:12;;;;;;;;;;;;;;;;;;5085375;28;20284;-47
2022/10/20 04:50:37;;;;;;;;;;;;;;;;;;5073407;28;20023;-50
2022/10/20 04:53:03;;;;;;;;;;;;;;;;;;5068945;28;20480;-46
2022/10/20 04:55:29;;;;;;;;;;;;;;;;;;5086734;28;19961;-47
2022/10/20 04:57:55;;;;;;;;;;;;;;;;;;5078063;28;19908;-47
2022/10/20 05:00:21;;;;;;;;;;;;;;;;;;5068000;28;19995;-51
2022/10/20 05:02:47;;;;;;;;;;;;;;;;;;5082355;28;19912;-47
2022/10/20 05:05:13;;;;;;;;;;;;;;;;;;5082678;28;19958;-50
2022/10/20 05:07:39;;;;;;;;;;;;;;;;;;5072352;28;19908;-48
2022/10/20 05:10:04;;;;;;;;;;;;;;;;;;5071318;28;20022;-47
2022/10/20 05:12:30;;;;;;;;;;;;;;;;;;5078500;28;19908;-49
2022/10/20 05:14:56;;;;;;;;;;;;;;;;;;5087760;28;19935;-48
2022/10/20 05:17:22;;;;;;;;;;;;;;;;;;5080267;28;19916;-46
2022/10/20 05:19:48;;;;;;;;;;;;;;;;;;5069850;28;19915;-48
2022/10/20 05:22:14;;;;;;;;;;;;;;;;;;5078378;28;20379;-50
2022/10/20 05:24:40;;;;;;;;;;;;;;;;;;5068672;28;19905;-46
2022/10/20 05:27:06;;;;;;;;;;;;;;;;;;5068300;28;19916;-47
2022/10/20 05:29:31;;;;;;;;;;;;;;;;;;5075950;28;19918;-51
2022/10/20 05:31:57;;;;;;;;;;;;;;;;;;5089100;28;19908;-50
2022/10/20 05:34:23;;;;;;;;;;;;;;;;;;5086038;28;19913;-48
2022/10/20 05:36:49;;;;;;;;;;;;;;;;;;5068917;28;19911;-50
2022/10/20 05:39:15;;;;;;;;;;;;;;;;;;5068145;28;20346;-49
2022/10/20 05:41:41;;;;;;;;;;;;;;;;;;5068541;28;19911;-49
2022/10/20 05:44:10;;;;;;;;;;;;;;;;;;5080987;28;20437;-48
2022/10/20 05:46:40;;;;;;;;;;;;;;;;;;5088624;28;19944;-49
2022/10/20 05:49:05;;;;;;;;;;;;;;;;;;5089920;28;19904;-50
2022/10/20 05:51:31;;;;;;;;;;;;;;;;;;5091326;28;20575;-51
2022/10/20 05:53:57;;;;;;;;;;;;;;;;;;5092111;28;19904;-47
2022/10/20 05:56:23;;;;;;;;;;;;;;;;;;5092112;28;19938;-51
2022/10/20 05:58:49;;;;;;;;;;;;;;;;;;5090326;28;19915;-50
2022/10/20 06:01:19;;;;;;;;;;;;;;;;;;5090396;28;20314;-47
2022/10/20 06:03:45;;;;;;;;;;;;;;;;;;5089449;28;19908;-51
2022/10/20 06:06:11;;;;;;;;;;;;;;;;;;5087793;28;19908;-47
2022/10/20 06:08:37;;;;;;;;;;;;;;;;;;5083098;28;21553;-47
2022/10/20 06:11:03;;;;;;;;;;;;;;;;;;5088968;28;19964;-48
2022/10/20 06:13:29;;;;;;;;;;;;;;;;;;5080604;28;20033;-48
2022/10/20 06:15:54;;;;;;;;;;;;;;;;;;5080686;28;19915;-50
2022/10/20 06:18:20;;;;;;;;;;;;;;;;;;5091086;28;19904;-45
2022/10/20 06:20:46;;;;;;;;;;;;;;;;;;5091239;28;20041;-50
2022/10/20 06:23:12;;;;;;;;;;;;;;;;;;5090724;28;19914;-50
2022/10/20 06:25:38;;;;;;;;;;;;;;;;;;5091203;28;19911;-48
2022/10/20 06:28:04;;;;;;;;;;;;;;;;;;5089859;28;20337;-51
2022/10/20 06:30:30;;;;;;;;;;;;;;;;;;5090447;28;20282;-48
2022/10/20 06:32:56;;;;;;;;;;;;;;;;;;5089586;28;20363;-49
2022/10/20 06:35:21;;;;;;;;;;;;;;;;;;5089287;28;19904;-51
2022/10/20 06:37:47;;;;;;;;;;;;;;;;;;5089424;28;19904;-48
2022/10/20 06:40:13;;;;;;;;;;;;;;;;;;5089239;28;19956;-47
2022/10/20 06:42:39;;;;;;;;;;;;;;;;;;5089434;28;19951;-51
2022/10/20 06:45:05;;;;;;;;;;;;;;;;;;5089430;28;19910;-48
2022/10/20 06:47:31;;;;;;;;;;;;;;;;;;5089996;28;19973;-50
2022/10/20 06:49:57;;;;;;;;;;;;;;;;;;5089453;28;20371;-48
2022/10/20 06:52:23;;;;;;;;;;;;;;;;;;5088570;28;19927;-49
2022/10/20 06:54:48;;;;;;;;;;;;;;;;;;5089280;28;20390;-50
2022/10/20 06:57:14;;;;;;;;;;;;;;;;;;5089240;28;19957;-51
2022/10/20 06:59:40;;;;;;;;;;;;;;;;;;5089200;28;19904;-49
2022/10/20 07:02:06;;;;;;;;;;;;;;;;;;5088138;28;19904;-52
2022/10/20 07:04:32;;;;;;;;;;;;;;;;;;5089622;28;19907;-50
2022/10/20 07:06:58;;;;;;;;;;;;;;;;;;5089109;28;19904;-49
2022/10/20 07:09:24;;;;;;;;;;;;;;;;;;5088852;28;19911;-47
2022/10/20 07:11:50;;;;;;;;;;;;;;;;;;5088793;28;19966;-52
2022/10/20 07:14:16;;;;;;;;;;;;;;;;;;5088666;28;20375;-49
2022/10/20 07:16:41;;;;;;;;;;;;;;;;;;5088850;28;20398;-50
2022/10/20 07:19:07;;;;;;;;;;;;;;;;;;5088378;28;19988;-49
2022/10/20 07:21:35;;;;;;;;;;;;;;;;;;5088502;28;19911;-49
2022/10/20 07:24:01;;;;;;;;;;;;;;;;;;5089163;28;19904;-49
2022/10/20 07:26:27;;;;;;;;;;;;;;;;;;5088542;28;20395;-51
2022/10/20 07:28:53;;;;;;;;;;;;;;;;;;5088464;28;19920;-49
2022/10/20 07:31:19;;;;;;;;;;;;;;;;;;5088120;28;19958;-51
2022/10/20 07:33:45;;;;;;;;;;;;;;;;;;5088509;28;20367;-48
2022/10/20 07:36:11;;;;;;;;;;;;;;;;;;5087993;28;19914;-50
2022/10/20 07:38:36;;;;;;;;;;;;;;;;;;5088403;28;19999;-48
2022/10/20 07:41:02;;;;;;;;;;;;;;;;;;5088818;28;19994;-51
2022/10/20 07:43:28;;;;;;;;;;;;;;;;;;5088793;28;19964;-51
2022/10/20 07:45:54;;;;;;;;;;;;;;;;;;5088182;28;19904;-51
2022/10/20 07:48:20;;;;;;;;;;;;;;;;;;5088282;28;20319;-52
2022/10/20 07:50:46;;;;;;;;;;;;;;;;;;5088130;28;19915;-47
2022/10/20 07:53:12;;;;;;;;;;;;;;;;;;5087578;28;20375;-49
2022/10/20 07:55:38;;;;;;;;;;;;;;;;;;5088444;28;19904;-49
2022/10/20 07:58:03;;;;;;;;;;;;;;;;;;5087795;28;19904;-51
2022/10/20 08:00:29;;;;;;;;;;;;;;;;;;5088886;28;20349;-50
2022/10/20 08:02:55;;;;;;;;;;;;;;;;;;5086390;28;19904;-52
2022/10/20 08:05:21;;;;;;;;;;;;;;;;;;5087571;28;19900;-48
2022/10/20 08:07:47;;;;;;;;;;;;;;;;;;5087852;28;19985;-50
2022/10/20 08:10:13;;;;;;;;;;;;;;;;;;5087511;28;20278;-49
2022/10/20 08:12:39;;;;;;;;;;;;;;;;;;5086728;28;19957;-50
2022/10/20 08:15:05;;;;;;;;;;;;;;;;;;5087565;28;20413;-50
2022/10/20 08:17:31;;;;;;;;;;;;;;;;;;5088179;28;19911;-49
2022/10/20 08:19:56;;;;;;;;;;;;;;;;;;5087299;28;20405;-51
2022/10/20 08:22:22;;;;;;;;;;;;;;;;;;5087452;28;19912;-49
2022/10/20 08:24:48;;;;;;;;;;;;;;;;;;5087720;28;19940;-49
2022/10/20 08:27:14;;;;;;;;;;;;;;;;;;5087192;28;20336;-51
2022/10/20 08:29:40;;;;;;;;;;;;;;;;;;5087848;28;19908;-46
2022/10/20 08:32:06;;;;;;;;;;;;;;;;;;5087049;28;20275;-49
2022/10/20 08:34:32;;;;;;;;;;;;;;;;;;5087910;28;19961;-52
2022/10/20 08:36:59;;;;;;;;;;;;;;;;;;5088402;28;19904;-51
2022/10/20 08:39:24;;;;;;;;;;;;;;;;;;5087251;28;19946;-50
2022/10/20 08:41:50;;;;;;;;;;;;;;;;;;5087518;28;20347;-47
2022/10/20 08:44:16;;;;;;;;;;;;;;;;;;5087178;28;20295;-48
2022/10/20 08:46:42;;;;;;;;;;;;;;;;;;5087371;28;19961;-49
2022/10/20 08:49:08;;;;;;;;;;;;;;;;;;5087452;28;20424;-46
2022/10/20 08:51:37;;;;;;;;;;;;;;;;;;5087557;28;19953;-47
2022/10/20 08:54:02;;;;;;;;;;;;;;;;;;5087639;28;20376;-49
2022/10/20 08:56:28;;;;;;;;;;;;;;;;;;5088254;28;19962;-51
2022/10/20 08:58:54;;;;;;;;;;;;;;;;;;5087164;28;19949;-49
2022/10/20 09:01:20;;;;;;;;;;;;;;;;;;5086997;28;19912;-48
2022/10/20 09:03:46;;;;;;;;;;;;;;;;;;5086720;28;19926;-51
2022/10/20 09:06:12;;;;;;;;;;;;;;;;;;5087056;28;19904;-51
2022/10/20 09:08:38;;;;;;;;;;;;;;;;;;5087121;28;19979;-47
2022/10/20 09:11:04;;;;;;;;;;;;;;;;;;5086983;28;20339;-48
2022/10/20 09:13:30;;;;;;;;;;;;;;;;;;5087645;28;20042;-49
2022/10/20 09:15:56;;;;;;;;;;;;;;;;;;5087659;28;19904;-50
2022/10/20 09:18:22;;;;;;;;;;;;;;;;;;5086548;28;19939;-50
2022/10/20 09:20:48;;;;;;;;;;;;;;;;;;5087163;28;19930;-50
2022/10/20 09:23:14;;;;;;;;;;;;;;;;;;5086918;28;19904;-52
2022/10/20 09:25:39;;;;;;;;;;;;;;;;;;5091048;28;20007;-51
2022/10/20 09:28:05;;;;;;;;;;;;;;;;;;5090451;28;20359;-47
2022/10/20 09:30:34;;;;;;;;;;;;;;;;;;5086675;28;19905;-49
2022/10/20 09:33:02;;;;;;;;;;;;;;;;;;5071637;28;19914;-50
2022/10/20 09:35:28;;;;;;;;;;;;;;;;;;5071433;28;19951;-52
2022/10/20 09:37:54;;;;;;;;;;;;;;;;;;5072175;28;19952;-49
2022/10/20 09:40:20;;;;;;;;;;;;;;;;;;5071872;28;20331;-48
2022/10/20 09:42:46;;;;;;;;;;;;;;;;;;5072035;28;19904;-50
2022/10/20 09:45:12;;;;;;;;;;;;;;;;;;5071897;28;19901;-50
2022/10/20 09:47:38;;;;;;;;;;;;;;;;;;5071996;28;19953;-51
2022/10/20 09:50:04;;;;;;;;;;;;;;;;;;5071959;28;19908;-50
2022/10/20 09:52:32;;;;;;;;;;;;;;;;;;5072008;28;19908;-47
2022/10/20 09:54:58;;;;;;;;;;;;;;;;;;5072183;28;20599;-50
2022/10/20 09:57:24;;;;;;;;;;;;;;;;;;5071423;28;19904;-51
2022/10/20 09:59:50;;;;;;;;;;;;;;;;;;5071713;28;19905;-49
2022/10/20 10:02:16;;;;;;;;;;;;;;;;;;5071796;28;19904;-52
2022/10/20 10:04:42;;;;;;;;;;;;;;;;;;5071601;28;19917;-50
2022/10/20 10:07:08;;;;;;;;;;;;;;;;;;5071448;28;19908;-50
2022/10/20 10:09:34;;;;;;;;;;;;;;;;;;5080806;28;20411;-52
2022/10/20 10:12:00;;;;;;;;;;;;;;;;;;5092625;28;19908;-49
2022/10/20 10:14:26;;;;;;;;;;;;;;;;;;5074453;28;19945;-51
2022/10/20 10:16:52;;;;;;;;;;;;;;;;;;5081022;28;19907;-52
2022/10/20 10:19:18;;;;;;;;;;;;;;;;;;5090688;28;20306;-49
2022/10/20 10:21:44;;;;;;;;;;;;;;;;;;5087984;28;19908;-52
2022/10/20 10:24:10;;;;;;;;;;;;;;;;;;5080670;28;20375;-51
2022/10/20 10:26:36;;;;;;;;;;;;;;;;;;5079552;28;19908;-49
2022/10/20 10:29:02;;;;;;;;;;;;;;;;;;5089695;28;20009;-50
2022/10/20 10:31:27;;;;;;;;;;;;;;;;;;5093288;28;20006;-50
2022/10/20 10:33:53;;;;;;;;;;;;;;;;;;5092678;28;20002;-50
2022/10/20 10:36:19;;;;;;;;;;;;;;;;;;5086176;28;19943;-49
2022/10/20 10:38:45;;;;;;;;;;;;;;;;;;5089553;28;19931;-51
2022/10/20 10:41:11;;;;;;;;;;;;;;;;;;5092145;28;19914;-52
2022/10/20 10:43:37;;;;;;;;;;;;;;;;;;5092380;28;20353;-53
2022/10/20 10:46:03;;;;;;;;;;;;;;;;;;5079780;28;19905;-52
2022/10/20 10:48:29;;;;;;;;;;;;;;;;;;5072342;28;20433;-54
2022/10/20 10:50:54;;;;;;;;;;;;;;;;;;5076871;28;19911;-51
2022/10/20 10:53:20;;;;;;;;;;;;;;;;;;5072719;28;19908;-48
2022/10/20 10:55:46;;;;;;;;;;;;;;;;;;5080748;28;19904;-51
2022/10/20 10:58:12;;;;;;;;;;;;;;;;;;5092594;28;19912;-48
2022/10/20 11:00:38;;;;;;;;;;;;;;;;;;5084607;28;19904;-52
2022/10/20 11:03:04;;;;;;;;;;;;;;;;;;5085373;28;19913;-51
2022/10/20 11:05:30;;;;;;;;;;;;;;;;;;5077196;28;19911;-51
2022/10/20 11:07:56;;;;;;;;;;;;;;;;;;5091527;28;19961;-52
2022/10/20 11:10:21;;;;;;;;;;;;;;;;;;5076630;28;19929;-50
2022/10/20 11:12:47;;;;;;;;;;;;;;;;;;5087938;28;20336;-53
2022/10/20 11:15:13;;;;;;;;;;;;;;;;;;5072058;28;19908;-50
2022/10/20 11:17:39;;;;;;;;;;;;;;;;;;5073633;28;20330;-49
2022/10/20 11:20:05;;;;;;;;;;;;;;;;;;5080729;28;19912;-51
2022/10/20 11:22:31;;;;;;;;;;;;;;;;;;5086327;28;20367;-51
2022/10/20 11:24:57;;;;;;;;;;;;;;;;;;5085057;28;19912;-51
2022/10/20 11:27:23;;;;;;;;;;;;;;;;;;5070557;28;19920;-50
2022/10/20 11:29:48;;;;;;;;;;;;;;;;;;5084381;28;19908;-49
2022/10/20 11:32:14;;;;;;;;;;;;;;;;;;5080672;28;19919;-51
2022/10/20 11:34:41;;;;;;;;;;;;;;;;;;5084956;28;19960;-54
2022/10/20 11:37:07;;;;;;;;;;;;;;;;;;5084174;28;19915;-49
2022/10/20 11:39:33;;;;;;;;;;;;;;;;;;5069810;28;20388;-52
2022/10/20 11:41:59;;;;;;;;;;;;;;;;;;5069128;28;19984;-53
2022/10/20 11:44:25;;;;;;;;;;;;;;;;;;5068970;28;20476;-50
2022/10/20 11:46:51;;;;;;;;;;;;;;;;;;5085761;28;19908;-50
2022/10/20 11:49:17;;;;;;;;;;;;;;;;;;5071035;28;19962;-50
2022/10/20 11:51:52;;;;;;;7.13;4.23;;;;;;;;;;5068727;28;20867;-47
2022/10/20 11:54:31;;;;;;;6.75;4.00;;;;;;;;;;5067984;28;20454;-47
2022/10/20 11:57:17;;;;;;;9.60;4.38;;;;;;;;;;5088086;28;20028;-52
2022/10/20 11:59:49;;;;;;;6.07;3.90;;;;;;;;;;5089065;28;20032;-49
2022/10/20 12:02:15;;;;;;;6.90;3.83;;;;;;;;;;5084878;28;20514;-49
2022/10/20 12:04:47;;;;;;;8.05;3.83;;;;;;;;;;5087885;28;20038;-47
2022/10/20 12:07:13;;;;;;;7.88;4.22;;;;;;;;;;5080247;28;20035;-51
2022/10/20 12:09:39;;;;;;;6.75;4.07;;;;;;;;;;5068994;28;20036;-51
2022/10/20 12:12:07;;;;;;;7.45;3.85;;;;;;;;;;5075755;28;20028;-49
2022/10/20 12:14:37;;;;;;;5.80;3.80;;;;;;;;;;5087339;28;20032;-48
2022/10/20 12:17:12;;;;;;;8.70;3.72;;;;;;;;;;5077009;28;20111;-53
2022/10/20 12:19:38;;;;;;;11.95;4.88;;;;;;;;;;5070046;28;20529;-53
2022/10/20 12:22:13;;;;;;;8.52;4.50;;;;;;;;;;5085561;28;20036;-48
2022/10/20 12:24:41;;;;;;;10.45;4.38;;;;;;;;;;5086565;28;20032;-51
2022/10/20 12:27:06;;;;;;;10.25;4.60;;;;;;;;;;5077294;28;20409;-50
2022/10/20 12:29:32;;;;;;;8.50;5.10;;;;;;;;;;5074931;28;20038;-49
2022/10/20 12:32:19;;;;;;;7.47;4.43;;;;;;;;;;5082614;28;20507;-51
2022/10/20 12:34:46;;;;;;;6.22;4.10;;;;;;;;;;5084485;28;20082;-49
2022/10/20 12:37:16;;;;;;;6.35;4.00;;;;;;;;;;5080260;28;20516;-52
2022/10/20 12:39:43;;;;;;;5.28;3.60;;;;;;;;;;5080867;28;20542;-48
2022/10/20 12:42:18;;;;;;;9.25;3.97;;;;;;;;;;5071671;28;20090;-51
2022/10/20 12:44:45;;;;;;;6.75;3.50;;;;;;;;;;5067554;28;20028;-51
2022/10/20 12:47:31;;;;;;;6.63;3.80;;;;;;;;;;5069540;28;20032;-48
2022/10/20 12:49:57;;;;;;;6.72;3.58;;;;;;;;;;5076567;28;20082;-51
2022/10/20 12:52:26;;;;;;;7.03;3.63;;;;;;;;;;5069816;28;20419;-50
2022/10/20 12:54:54;;;;;;;7.07;4.13;;;;;;;;;;5079568;28;20067;-50
2022/10/20 12:57:30;;;;;;;9.55;4.28;;;;;;;;;;5077183;28;20028;-48
2022/10/20 12:59:56;;;;;;;5.13;3.00;;;;;;;;;;5088401;28;20054;-49
2022/10/20 13:02:22;;;;;;;5.55;3.03;;;;;;;;;;5093213;28;20543;-50
2022/10/20 13:05:07;;;;;;;3.40;2.55;;;;;;;;;;5093350;28;20032;-52
2022/10/20 13:07:48;;;;;;;3.05;2.28;;;;;;;;;;5085677;28;20124;-49
2022/10/20 13:10:29;;;;;;;2.60;1.98;;;;;;;;;;5084850;28;20462;-48
2022/10/20 13:13:01;;;;;;;3.10;2.17;;;;;;;;;;5090993;28;20123;-51
2022/10/20 13:15:27;;;;;;;;;;;;;;;;;;5073309;28;20060;-48
2022/10/20 13:17:53;;;;;;;;;;;;;;;;;;5077675;28;20362;-48
2022/10/20 13:20:19;;;;;;;;;;;;;;;;;;5093293;28;19908;-48
2022/10/20 13:22:45;;;;;;;;;;;;;;;;;;5095469;28;20333;-51
2022/10/20 13:25:11;;;;;;;;;;;;;;;;;;5092803;28;19922;-49
2022/10/20 13:27:37;;;;;;;;;;;;;;;;;;5090934;28;19916;-48
2022/10/20 13:30:03;;;;;;;;;;;;;;;;;;5095402;28;20317;-52
2022/10/20 13:32:29;;;;;;;;;;;;;;;;;;5078197;28;19959;-47
2022/10/20 13:34:54;;;;;;;;;;;;;;;;;;5094505;28;19910;-51
2022/10/20 13:37:22;;;;;;;;;;;;;;;;;;5090388;28;19912;-49
2022/10/20 13:39:48;;;;;;;;;;;;;;;;;;5089196;28;20434;-50
2022/10/20 13:42:14;;;;;;;;;;;;;;;;;;5072615;28;19999;-49
2022/10/20 13:44:40;;;;;;;;;;;;;;;;;;5072863;28;19974;-51
2022/10/20 13:47:06;;;;;;;;;;;;;;;;;;5089547;28;19930;-49
2022/10/20 13:49:32;;;;;;;;;;;;;;;;;;5093538;28;19904;-50
2022/10/20 13:51:57;;;;;;;;;;;;;;;;;;5093938;28;19908;-49
2022/10/20 13:54:23;;;;;;;;;;;;;;;;;;5092312;28;19977;-52
2022/10/20 13:56:49;;;;;;;;;;;;;;;;;;5091234;28;19911;-48
2022/10/20 13:59:16;;;;;;;;;;;;;;;;;;5090419;28;20050;-51
2022/10/20 14:01:42;;;;;;;;;;;;;;;;;;5088521;28;19918;-51
2022/10/20 14:04:08;;;;;;;;;;;;;;;;;;5073880;28;20414;-49
2022/10/20 14:06:34;;;;;;;;;;;;;;;;;;5077987;28;19904;-50
2022/10/20 14:09:00;;;;;;;;;;;;;;;;;;5092468;28;20378;-48
2022/10/20 14:11:25;;;;;;;;;;;;;;;;;;5083925;28;20383;-49
2022/10/20 14:13:51;;;;;;;;;;;;;;;;;;5083772;28;19908;-51
2022/10/20 14:16:17;;;;;;;;;;;;;;;;;;5076327;28;20859;-49
2022/10/20 14:18:43;;;;;;;;;;;;;;;;;;5075908;28;19908;-49
2022/10/20 14:21:09;;;;;;;;;;;;;;;;;;5075598;28;20455;-49
2022/10/20 14:23:35;;;;;;;;;;;;;;;;;;5081588;28;19908;-48
2022/10/20 14:26:01;;;;;;;;;;;;;;;;;;5084936;28;19915;-48
2022/10/20 14:28:28;;;;;;;;;;;;;;;;;;5085129;28;19948;-47
2022/10/20 14:30:54;;;;;;;;;;;;;;;;;;5080185;28;19912;-50
2022/10/20 14:33:19;;;;;;;;;;;;;;;;;;5081663;28;19995;-52
2022/10/20 14:35:45;;;;;;;;;;;;;;;;;;5078260;28;20375;-48
2022/10/20 14:38:13;;;;;;;;;;;;;;;;;;5075856;28;19909;-50
2022/10/20 14:40:39;;;;;;;;;;;;;;;;;;5079884;28;19999;-49
2022/10/20 14:43:05;;;;;;;;;;;;;;;;;;5075370;28;20317;-49
2022/10/20 14:45:31;;;;;;;;;;;;;;;;;;5079344;28;19920;-51
2022/10/20 14:47:57;;;;;;;;;;;;;;;;;;5078911;28;20364;-49
2022/10/20 14:50:23;;;;;;;;;;;;;;;;;;5081350;28;20298;-49
2022/10/20 14:52:49;;;;;;;;;;;;;;;;;;5077652;28;19924;-51
2022/10/20 14:55:15;;;;;;;;;;;;;;;;;;5080618;28;19950;-50
2022/10/20 14:57:41;;;;;;;;;;;;;;;;;;5078403;28;20268;-51
2022/10/20 15:00:07;;;;;;;;;;;;;;;;;;5079812;28;19911;-49
2022/10/20 15:02:33;;;;;;;;;;;;;;;;;;5078225;28;20658;-49
2022/10/20 15:04:59;;;;;;;;;;;;;;;;;;5079525;28;19909;-53
2022/10/20 15:07:25;;;;;;;;;;;;;;;;;;5083267;28;20284;-49
2022/10/20 15:09:50;;;;;;;;;;;;;;;;;;5074934;28;19916;-47
2022/10/20 15:12:16;;;;;;;;;;;;;;;;;;5079196;28;20440;-51
2022/10/20 15:14:42;;;;;;;;;;;;;;;;;;5080651;28;19919;-49
2022/10/20 15:17:08;;;;;;;;;;;;;;;;;;5085451;28;19908;-51
2022/10/20 15:19:34;;;;;;;;;;;;;;;;;;5085015;28;20012;-50
2022/10/20 15:22:00;;;;;;;;;;;;;;;;;;5089613;28;19911;-48
2022/10/20 15:24:26;;;;;;;;;;;;;;;;;;5072815;28;19983;-48
2022/10/20 15:26:52;;;;;;;;;;;;;;;;;;5078121;28;19916;-48
2022/10/20 15:29:18;;;;;;;;;;;;;;;;;;5076164;28;19919;-50
2022/10/20 15:31:44;;;;;;;;;;;;;;;;;;5084558;28;19912;-49
2022/10/20 15:34:09;;;;;;;;;;;;;;;;;;5074576;28;19953;-49
2022/10/20 15:36:36;;;;;;;;;;;;;;;;;;5080784;28;19935;-49
2022/10/20 15:39:02;;;;;;;;;;;;;;;;;;5078208;28;20417;-52
2022/10/20 15:41:28;;;;;;;;;;;;;;;;;;5080167;28;19923;-51
2022/10/20 15:43:54;;;;;;;;;;;;;;;;;;5079494;28;20312;-50
2022/10/20 15:46:20;;;;;;;;;;;;;;;;;;5073649;28;19944;-52
2022/10/20 15:48:46;;;;;;;;;;;;;;;;;;5072187;28;19947;-51
2022/10/20 15:51:12;;;;;;;;;;;;;;;;;;5075448;28;20015;-49
2022/10/20 15:53:39;;;;;;;;;;;;;;;;;;5077728;28;19915;-52
2022/10/20 15:56:04;;;;;;;;;;;;;;;;;;5075922;28;19908;-50
2022/10/20 15:58:30;;;;;;;;;;;;;;;;;;5070395;28;19911;-52
2022/10/20 16:00:56;;;;;;;;;;;;;;;;;;5070205;28;19926;-48
2022/10/20 16:03:22;;;;;;;;;;;;;;;;;;5081841;28;20041;-51
2022/10/20 16:05:48;;;;;;;;;;;;;;;;;;5089133;28;20386;-52
2022/10/20 16:08:14;;;;;;;;;;;;;;;;;;5088843;28;19904;-48
2022/10/20 16:10:42;;;;;;;;;;;;;;;;;;5075753;28;20375;-49
2022/10/20 16:13:08;;;;;;;;;;;;;;;;;;5088688;28;20394;-49
2022/10/20 16:15:34;;;;;;;;;;;;;;;;;;5079598;28;19951;-50
2022/10/20 16:18:00;;;;;;;;;;;;;;;;;;5069104;28;19904;-48
2022/10/20 16:20:25;;;;;;;;;;;;;;;;;;5088366;28;20364;-51
2022/10/20 16:22:51;;;;;;;;;;;;;;;;;;5074703;28;19915;-49
2022/10/20 16:25:17;;;;;;;;;;;;;;;;;;5081590;28;19908;-47
2022/10/20 16:27:43;;;;;;;;;;;;;;;;;;5074795;28;20035;-50